sensor_id;sensor_type;location;lat;lon;timestamp;pressure;altitude;pressure_sealevel;temperature;humidity
42111;BME280;27766;52.174;5.456;2023-04-19T00:00:37;102732.00;;;9.11;100.00
42111;BME280;27766;52.174;5.456;2023-04-19T00:03:05;102740.38;;;9.07;100.00
42111;BME280;27766;52.174;5.456;2023-04-19T00:05:33;102732.56;;;9.05;100.00
42111;BME280;27766;52.174;5.456;2023-04-19T00:08:00;102733.19;;;9.01;100.00
42111;BME280;27766;52.174;5.456;2023-04-19T00:10:27;102732.13;;;8.97;100.00
42111;BME280;27766;52.174;5.456;2023-04-19T00:12:54;102725.09;;;8.95;100.00
42111;BME280;27766;52.174;5.456;2023-04-19T00:15:22;102726.69;;;8.93;100.00
42111;BME280;27766;52.174;5.456;2023-04-19T00:17:49;102743.03;;;8.92;100.00
42111;BME280;27766;52.174;5.456;2023-04-19T00:20:16;102737.50;;;8.85;100.00
42111;BME280;27766;52.174;5.456;2023-04-19T00:22:43;102734.69;;;8.81;100.00
42111;BME280;27766;52.174;5.456;2023-04-19T00:25:10;102737.16;;;8.79;100.00
42111;BME280;27766;52.174;5.456;2023-04-19T00:27:37;102733.53;;;8.76;100.00
42111;BME280;27766;52.174;5.456;2023-04-19T00:30:04;102733.25;;;8.71;100.00
42111;BME280;27766;52.174;5.456;2023-04-19T00:32:32;102729.81;;;8.70;100.00
42111;BME280;27766;52.174;5.456;2023-04-19T00:34:59;102733.84;;;8.65;100.00
42111;BME280;27766;52.174;5.456;2023-04-19T00:37:26;102731.16;;;8.64;100.00
42111;BME280;27766;52.174;5.456;2023-04-19T00:39:53;102727.50;;;8.60;100.00
42111;BME280;27766;52.174;5.456;2023-04-19T00:42:20;102717.91;;;8.58;100.00
42111;BME280;27766;52.174;5.456;2023-04-19T00:44:47;102723.59;;;8.52;100.00
42111;BME280;27766;52.174;5.456;2023-04-19T00:47:15;102713.81;;;8.46;100.00
42111;BME280;27766;52.174;5.456;2023-04-19T00:49:42;102716.56;;;8.49;100.00
42111;BME280;27766;52.174;5.456;2023-04-19T00:52:09;102713.00;;;8.47;100.00
42111;BME280;27766;52.174;5.456;2023-04-19T00:54:36;102717.19;;;8.45;100.00
42111;BME280;27766;52.174;5.456;2023-04-19T00:57:04;102716.38;;;8.46;100.00
42111;BME280;27766;52.174;5.456;2023-04-19T00:59:33;102712.75;;;8.43;100.00
42111;BME280;27766;52.174;5.456;2023-04-19T01:02:00;102709.56;;;8.47;100.00
42111;BME280;27766;52.174;5.456;2023-04-19T01:04:28;102705.47;;;8.50;100.00
42111;BME280;27766;52.174;5.456;2023-04-19T01:06:55;102705.28;;;8.47;100.00
42111;BME280;27766;52.174;5.456;2023-04-19T01:09:23;102700.91;;;8.46;100.00
42111;BME280;27766;52.174;5.456;2023-04-19T01:11:50;102707.66;;;8.44;100.00
42111;BME280;27766;52.174;5.456;2023-04-19T01:14:18;102692.78;;;8.40;100.00
42111;BME280;27766;52.174;5.456;2023-04-19T01:16:45;102700.66;;;8.42;100.00
42111;BME280;27766;52.174;5.456;2023-04-19T01:19:13;102700.72;;;8.43;100.00
42111;BME280;27766;52.174;5.456;2023-04-19T01:21:40;102700.91;;;8.46;100.00
42111;BME280;27766;52.174;5.456;2023-04-19T01:24:08;102695.84;;;8.48;100.00
42111;BME280;27766;52.174;5.456;2023-04-19T01:26:35;102695.31;;;8.53;100.00
42111;BME280;27766;52.174;5.456;2023-04-19T01:29:02;102700.56;;;8.55;100.00
42111;BME280;27766;52.174;5.456;2023-04-19T01:31:29;102695.56;;;8.58;100.00
42111;BME280;27766;52.174;5.456;2023-04-19T01:33:57;102696.38;;;8.57;100.00
42111;BME280;27766;52.174;5.456;2023-04-19T01:36:24;102689.78;;;8.62;100.00
42111;BME280;27766;52.174;5.456;2023-04-19T01:38:52;102677.66;;;8.61;100.00
42111;BME280;27766;52.174;5.456;2023-04-19T01:41:19;102690.09;;;8.68;100.00
42111;BME280;27766;52.174;5.456;2023-04-19T01:43:52;102687.06;;;8.76;100.00
42111;BME280;27766;52.174;5.456;2023-04-19T01:46:19;102682.00;;;8.77;100.00
42111;BME280;27766;52.174;5.456;2023-04-19T01:48:47;102683.13;;;8.82;100.00
42111;BME280;27766;52.174;5.456;2023-04-19T01:51:14;102683.38;;;8.87;100.00
42111;BME280;27766;52.174;5.456;2023-04-19T01:53:43;102683.38;;;8.87;100.00
42111;BME280;27766;52.174;5.456;2023-04-19T01:56:10;102686.84;;;8.87;100.00
42111;BME280;27766;52.174;5.456;2023-04-19T01:58:37;102693.38;;;8.97;100.00
42111;BME280;27766;52.174;5.456;2023-04-19T02:01:04;102689.13;;;8.98;100.00
42111;BME280;27766;52.174;5.456;2023-04-19T02:03:31;102686.63;;;8.99;100.00
42111;BME280;27766;52.174;5.456;2023-04-19T02:05:59;102691.72;;;8.98;100.00
42111;BME280;27766;52.174;5.456;2023-04-19T02:08:26;102691.06;;;9.02;100.00
42111;BME280;27766;52.174;5.456;2023-04-19T02:10:53;102684.34;;;9.06;100.00
42111;BME280;27766;52.174;5.456;2023-04-19T02:13:20;102684.72;;;9.12;100.00
42111;BME280;27766;52.174;5.456;2023-04-19T02:15:48;102681.53;;;9.17;100.00
42111;BME280;27766;52.174;5.456;2023-04-19T02:18:16;102698.81;;;9.18;100.00
42111;BME280;27766;52.174;5.456;2023-04-19T02:20:43;102695.25;;;9.16;100.00
42111;BME280;27766;52.174;5.456;2023-04-19T02:23:11;102684.94;;;9.16;100.00
42111;BME280;27766;52.174;5.456;2023-04-19T02:25:38;102693.91;;;9.23;100.00
42111;BME280;27766;52.174;5.456;2023-04-19T02:28:05;102694.72;;;9.22;100.00
42111;BME280;27766;52.174;5.456;2023-04-19T02:30:32;102700.94;;;9.26;100.00
42111;BME280;27766;52.174;5.456;2023-04-19T02:32:59;102699.25;;;9.26;100.00
42111;BME280;27766;52.174;5.456;2023-04-19T02:35:26;102701.19;;;9.30;100.00
42111;BME280;27766;52.174;5.456;2023-04-19T02:37:53;102696.75;;;9.28;100.00
42111;BME280;27766;52.174;5.456;2023-04-19T02:40:20;102692.19;;;9.24;100.00
42111;BME280;27766;52.174;5.456;2023-04-19T02:42:49;102695.03;;;9.28;100.00
42111;BME280;27766;52.174;5.456;2023-04-19T02:45:16;102696.81;;;9.29;100.00
42111;BME280;27766;52.174;5.456;2023-04-19T02:47:43;102698.66;;;9.32;100.00
42111;BME280;27766;52.174;5.456;2023-04-19T02:50:13;102700.56;;;9.34;100.00
42111;BME280;27766;52.174;5.456;2023-04-19T02:52:41;102704.81;;;9.34;100.00
42111;BME280;27766;52.174;5.456;2023-04-19T02:55:08;102702.22;;;9.34;100.00
42111;BME280;27766;52.174;5.456;2023-04-19T02:57:35;102700.63;;;9.36;100.00
42111;BME280;27766;52.174;5.456;2023-04-19T03:00:03;102696.44;;;9.38;100.00
42111;BME280;27766;52.174;5.456;2023-04-19T03:02:31;102697.38;;;9.40;100.00
42111;BME280;27766;52.174;5.456;2023-04-19T03:04:59;102694.66;;;9.37;100.00
42111;BME280;27766;52.174;5.456;2023-04-19T03:07:26;102682.53;;;9.36;100.00
42111;BME280;27766;52.174;5.456;2023-04-19T03:09:53;102692.94;;;9.38;100.00
42111;BME280;27766;52.174;5.456;2023-04-19T03:12:20;102692.13;;;9.39;100.00
42111;BME280;27766;52.174;5.456;2023-04-19T03:14:47;102697.63;;;9.45;100.00
42111;BME280;27766;52.174;5.456;2023-04-19T03:17:15;102696.88;;;9.47;100.00
42111;BME280;27766;52.174;5.456;2023-04-19T03:19:42;102696.19;;;9.50;100.00
42111;BME280;27766;52.174;5.456;2023-04-19T03:22:09;102694.53;;;9.52;100.00
42111;BME280;27766;52.174;5.456;2023-04-19T03:24:36;102698.03;;;9.53;100.00
42111;BME280;27766;52.174;5.456;2023-04-19T03:27:04;102692.06;;;9.54;100.00
42111;BME280;27766;52.174;5.456;2023-04-19T03:29:31;102690.28;;;9.53;100.00
42111;BME280;27766;52.174;5.456;2023-04-19T03:31:58;102695.59;;;9.56;100.00
42111;BME280;27766;52.174;5.456;2023-04-19T03:34:25;102699.72;;;9.52;100.00
42111;BME280;27766;52.174;5.456;2023-04-19T03:36:52;102689.31;;;9.50;100.00
42111;BME280;27766;52.174;5.456;2023-04-19T03:39:19;102686.72;;;9.50;100.00
42111;BME280;27766;52.174;5.456;2023-04-19T03:41:47;102687.69;;;9.53;100.00
42111;BME280;27766;52.174;5.456;2023-04-19T03:44:14;102684.94;;;9.49;100.00
42111;BME280;27766;52.174;5.456;2023-04-19T03:46:41;102690.09;;;9.49;100.00
42111;BME280;27766;52.174;5.456;2023-04-19T03:49:08;102687.22;;;9.43;100.00
42111;BME280;27766;52.174;5.456;2023-04-19T03:51:36;102689.56;;;9.39;100.00
42111;BME280;27766;52.174;5.456;2023-04-19T03:54:03;102687.38;;;9.30;100.00
42111;BME280;27766;52.174;5.456;2023-04-19T03:56:30;102694.16;;;9.28;100.00
42111;BME280;27766;52.174;5.456;2023-04-19T03:58:57;102692.38;;;9.27;100.00
42111;BME280;27766;52.174;5.456;2023-04-19T04:01:25;102685.75;;;9.15;100.00
42111;BME280;27766;52.174;5.456;2023-04-19T04:03:53;102685.66;;;9.14;100.00
42111;BME280;27766;52.174;5.456;2023-04-19T04:06:23;102684.59;;;9.10;100.00
42111;BME280;27766;52.174;5.456;2023-04-19T04:08:50;102684.28;;;9.04;100.00
42111;BME280;27766;52.174;5.456;2023-04-19T04:11:17;102688.22;;;8.97;100.00
42111;BME280;27766;52.174;5.456;2023-04-19T04:13:45;102687.88;;;8.91;100.00
42111;BME280;27766;52.174;5.456;2023-04-19T04:16:12;102687.81;;;8.90;100.00
42111;BME280;27766;52.174;5.456;2023-04-19T04:18:39;102688.63;;;8.89;100.00
42111;BME280;27766;52.174;5.456;2023-04-19T04:21:07;102692.00;;;8.87;100.00
42111;BME280;27766;52.174;5.456;2023-04-19T04:23:34;102691.94;;;8.86;100.00
42111;BME280;27766;52.174;5.456;2023-04-19T04:26:01;102690.53;;;8.76;100.00
42111;BME280;27766;52.174;5.456;2023-04-19T04:28:30;102691.16;;;8.72;100.00
42111;BME280;27766;52.174;5.456;2023-04-19T04:30:58;102684.41;;;8.74;100.00
42111;BME280;27766;52.174;5.456;2023-04-19T04:33:27;102696.31;;;8.72;100.00
42111;BME280;27766;52.174;5.456;2023-04-19T04:35:54;102693.41;;;8.66;100.00
42111;BME280;27766;52.174;5.456;2023-04-19T04:38:22;102690.03;;;8.67;100.00
42111;BME280;27766;52.174;5.456;2023-04-19T04:40:52;102688.91;;;8.62;100.00
42111;BME280;27766;52.174;5.456;2023-04-19T04:43:21;102691.09;;;8.55;100.00
42111;BME280;27766;52.174;5.456;2023-04-19T04:45:49;102691.69;;;8.50;100.00
42111;BME280;27766;52.174;5.456;2023-04-19T04:48:16;102690.16;;;8.53;100.00
42111;BME280;27766;52.174;5.456;2023-04-19T04:50:43;102695.13;;;8.50;100.00
42111;BME280;27766;52.174;5.456;2023-04-19T04:53:11;102694.94;;;8.47;100.00
42111;BME280;27766;52.174;5.456;2023-04-19T04:55:39;102700.22;;;8.49;100.00
42111;BME280;27766;52.174;5.456;2023-04-19T04:58:06;102705.28;;;8.47;100.00
42111;BME280;27766;52.174;5.456;2023-04-19T05:00:33;102701.59;;;8.44;100.00
42111;BME280;27766;52.174;5.456;2023-04-19T05:03:00;102698.59;;;8.36;100.00
42111;BME280;27766;52.174;5.456;2023-04-19T05:05:32;102705.69;;;8.40;100.00
42111;BME280;27766;52.174;5.456;2023-04-19T05:07:59;102688.72;;;8.29;100.00
42111;BME280;27766;52.174;5.456;2023-04-19T05:10:27;102696.47;;;8.29;100.00
42111;BME280;27766;52.174;5.456;2023-04-19T05:12:54;102700.97;;;8.33;100.00
42111;BME280;27766;52.174;5.456;2023-04-19T05:15:22;102712.75;;;8.28;100.00
42111;BME280;27766;52.174;5.456;2023-04-19T05:17:49;102695.66;;;8.30;100.00
42111;BME280;27766;52.174;5.456;2023-04-19T05:20:17;102700.13;;;8.32;100.00
42111;BME280;27766;52.174;5.456;2023-04-19T05:22:44;102694.59;;;8.26;100.00
42111;BME280;27766;52.174;5.456;2023-04-19T05:25:11;102710.59;;;8.35;100.00
42111;BME280;27766;52.174;5.456;2023-04-19T05:27:38;102711.50;;;8.36;100.00
42111;BME280;27766;52.174;5.456;2023-04-19T05:30:06;102692.53;;;8.35;100.00
42111;BME280;27766;52.174;5.456;2023-04-19T05:32:33;102705.44;;;8.35;100.00
42111;BME280;27766;52.174;5.456;2023-04-19T05:35:01;102707.13;;;8.35;100.00
42111;BME280;27766;52.174;5.456;2023-04-19T05:37:28;102705.69;;;8.40;100.00
42111;BME280;27766;52.174;5.456;2023-04-19T05:39:56;102709.63;;;8.48;100.00
42111;BME280;27766;52.174;5.456;2023-04-19T05:42:24;102702.50;;;8.44;100.00
42111;BME280;27766;52.174;5.456;2023-04-19T05:44:52;102712.66;;;8.56;100.00
42111;BME280;27766;52.174;5.456;2023-04-19T05:47:19;102713.19;;;8.65;100.00
42111;BME280;27766;52.174;5.456;2023-04-19T05:49:47;102713.53;;;8.71;100.00
42111;BME280;27766;52.174;5.456;2023-04-19T05:52:14;102716.19;;;8.73;100.00
42111;BME280;27766;52.174;5.456;2023-04-19T05:54:42;102717.56;;;8.83;100.00
42111;BME280;27766;52.174;5.456;2023-04-19T05:57:10;102711.38;;;8.96;100.00
42111;BME280;27766;52.174;5.456;2023-04-19T05:59:37;102708.72;;;8.94;100.00
42111;BME280;27766;52.174;5.456;2023-04-19T06:02:04;102720.28;;;9.01;100.00
42111;BME280;27766;52.174;5.456;2023-04-19T06:04:31;102727.22;;;9.02;100.00
42111;BME280;27766;52.174;5.456;2023-04-19T06:06:58;102719.91;;;9.10;100.00
42111;BME280;27766;52.174;5.456;2023-04-19T06:09:25;102716.84;;;9.17;100.00
42111;BME280;27766;52.174;5.456;2023-04-19T06:11:53;102717.34;;;9.26;100.00
42111;BME280;27766;52.174;5.456;2023-04-19T06:14:27;102724.84;;;9.38;100.00
42111;BME280;27766;52.174;5.456;2023-04-19T06:16:56;102722.41;;;9.58;100.00
42111;BME280;27766;52.174;5.456;2023-04-19T06:19:24;102730.31;;;9.77;100.00
42111;BME280;27766;52.174;5.456;2023-04-19T06:21:52;102717.03;;;9.88;100.00
42111;BME280;27766;52.174;5.456;2023-04-19T06:24:19;102715.06;;;10.00;94.33
42111;BME280;27766;52.174;5.456;2023-04-19T06:26:47;102732.41;;;10.19;93.12
42111;BME280;27766;52.174;5.456;2023-04-19T06:29:15;102730.78;;;10.21;83.51
42111;BME280;27766;52.174;5.456;2023-04-19T06:31:43;102727.03;;;10.33;85.59
42111;BME280;27766;52.174;5.456;2023-04-19T06:34:12;102737.72;;;10.39;82.65
42111;BME280;27766;52.174;5.456;2023-04-19T06:36:39;102718.81;;;10.23;73.58
42111;BME280;27766;52.174;5.456;2023-04-19T06:39:06;102724.88;;;10.24;74.33
42111;BME280;27766;52.174;5.456;2023-04-19T06:41:33;102727.78;;;10.30;68.75
42111;BME280;27766;52.174;5.456;2023-04-19T06:44:01;102733.59;;;10.26;64.63
42111;BME280;27766;52.174;5.456;2023-04-19T06:46:28;102729.41;;;10.28;63.31
42111;BME280;27766;52.174;5.456;2023-04-19T06:48:56;102734.88;;;10.34;62.49
42111;BME280;27766;52.174;5.456;2023-04-19T06:51:23;102729.38;;;10.44;63.49
42111;BME280;27766;52.174;5.456;2023-04-19T06:53:50;102736.03;;;10.57;60.99
42111;BME280;27766;52.174;5.456;2023-04-19T06:56:38;102742.56;;;10.67;58.84
42111;BME280;27766;52.174;5.456;2023-04-19T06:59:05;102741.66;;;10.67;56.26
42111;BME280;27766;52.174;5.456;2023-04-19T07:01:32;102735.72;;;10.69;55.56
42111;BME280;27766;52.174;5.456;2023-04-19T07:04:00;102747.22;;;10.74;55.48
42111;BME280;27766;52.174;5.456;2023-04-19T07:06:28;102737.28;;;10.66;55.29
42111;BME280;27766;52.174;5.456;2023-04-19T07:08:55;102746.63;;;10.80;56.60
42111;BME280;27766;52.174;5.456;2023-04-19T07:11:25;102739.56;;;10.77;54.71
42111;BME280;27766;52.174;5.456;2023-04-19T07:13:52;102737.34;;;10.85;54.59
42111;BME280;27766;52.174;5.456;2023-04-19T07:16:19;102740.28;;;10.93;55.12
42111;BME280;27766;52.174;5.456;2023-04-19T07:18:47;102743.75;;;11.12;52.85
42111;BME280;27766;52.174;5.456;2023-04-19T07:21:14;102729.44;;;11.20;54.55
42111;BME280;27766;52.174;5.456;2023-04-19T07:23:41;102743.75;;;11.31;53.05
42111;BME280;27766;52.174;5.456;2023-04-19T07:26:08;102748.13;;;11.32;52.16
42111;BME280;27766;52.174;5.456;2023-04-19T07:28:35;102742.88;;;11.31;52.30
42111;BME280;27766;52.174;5.456;2023-04-19T07:31:03;102738.72;;;11.34;51.60
42111;BME280;27766;52.174;5.456;2023-04-19T07:33:30;102749.84;;;11.51;51.70
42111;BME280;27766;52.174;5.456;2023-04-19T07:35:57;102748.16;;;11.52;52.56
42111;BME280;27766;52.174;5.456;2023-04-19T07:38:24;102742.22;;;11.54;51.40
42111;BME280;27766;52.174;5.456;2023-04-19T07:40:52;102748.63;;;11.43;50.23
42111;BME280;27766;52.174;5.456;2023-04-19T07:43:20;102731.16;;;11.39;50.80
42111;BME280;27766;52.174;5.456;2023-04-19T07:45:47;102745.63;;;11.53;49.49
42111;BME280;27766;52.174;5.456;2023-04-19T07:48:14;102741.59;;;11.40;50.37
42111;BME280;27766;52.174;5.456;2023-04-19T07:50:41;102748.81;;;11.48;50.08
42111;BME280;27766;52.174;5.456;2023-04-19T07:53:08;102751.28;;;11.64;50.21
42111;BME280;27766;52.174;5.456;2023-04-19T07:55:35;102743.16;;;11.76;50.56
42111;BME280;27766;52.174;5.456;2023-04-19T07:58:03;102739.81;;;11.59;48.86
42111;BME280;27766;52.174;5.456;2023-04-19T08:00:30;102757.75;;;11.74;48.41
42111;BME280;27766;52.174;5.456;2023-04-19T08:02:57;102752.78;;;11.79;49.25
42111;BME280;27766;52.174;5.456;2023-04-19T08:05:24;102749.66;;;11.66;47.39
42111;BME280;27766;52.174;5.456;2023-04-19T08:07:52;102748.09;;;11.70;48.56
42111;BME280;27766;52.174;5.456;2023-04-19T08:10:19;102747.22;;;11.91;47.86
42111;BME280;27766;52.174;5.456;2023-04-19T08:12:48;102746.63;;;11.96;47.16
42111;BME280;27766;52.174;5.456;2023-04-19T08:15:32;102742.84;;;11.90;47.27
42111;BME280;27766;52.174;5.456;2023-04-19T08:18:02;102740.50;;;11.75;47.87
42111;BME280;27766;52.174;5.456;2023-04-19T08:20:31;102744.69;;;11.92;48.27
42111;BME280;27766;52.174;5.456;2023-04-19T08:22:59;102746.28;;;12.08;47.35
42111;BME280;27766;52.174;5.456;2023-04-19T08:25:36;102745.19;;;12.03;47.43
42111;BME280;27766;52.174;5.456;2023-04-19T08:28:04;102733.63;;;11.96;47.17
42111;BME280;27766;52.174;5.456;2023-04-19T08:30:31;102746.22;;;12.07;46.04
42111;BME280;27766;52.174;5.456;2023-04-19T08:32:59;102736.22;;;11.96;46.99
42111;BME280;27766;52.174;5.456;2023-04-19T08:35:27;102746.06;;;11.84;46.71
42111;BME280;27766;52.174;5.456;2023-04-19T08:37:54;102740.47;;;12.14;47.47
42111;BME280;27766;52.174;5.456;2023-04-19T08:40:22;102733.75;;;12.19;45.24
42111;BME280;27766;52.174;5.456;2023-04-19T08:42:50;102731.78;;;12.13;45.57
42111;BME280;27766;52.174;5.456;2023-04-19T08:45:18;102733.56;;;12.14;46.32
42111;BME280;27766;52.174;5.456;2023-04-19T08:47:50;102719.94;;;12.20;44.65
42111;BME280;27766;52.174;5.456;2023-04-19T08:50:26;102733.69;;;12.17;44.76
42111;BME280;27766;52.174;5.456;2023-04-19T08:53:01;102719.81;;;12.38;45.09
42111;BME280;27766;52.174;5.456;2023-04-19T08:55:49;102729.91;;;12.53;43.98
42111;BME280;27766;52.174;5.456;2023-04-19T08:58:19;102719.53;;;12.53;44.60
42111;BME280;27766;52.174;5.456;2023-04-19T09:01:07;102724.66;;;12.51;43.45
42111;BME280;27766;52.174;5.456;2023-04-19T09:03:43;102714.91;;;12.46;41.85
42111;BME280;27766;52.174;5.456;2023-04-19T09:06:36;102716.25;;;12.57;43.14
42111;BME280;27766;52.174;5.456;2023-04-19T09:09:23;102715.84;;;12.69;41.63
42111;BME280;27766;52.174;5.456;2023-04-19T09:12:15;102716.53;;;12.65;40.71
42111;BME280;27766;52.174;5.456;2023-04-19T09:14:45;102716.13;;;12.77;43.17
42111;BME280;27766;52.174;5.456;2023-04-19T09:17:16;102706.03;;;12.85;42.11
42111;BME280;27766;52.174;5.456;2023-04-19T09:19:47;102707.31;;;12.96;41.60
42111;BME280;27766;52.174;5.456;2023-04-19T09:22:15;102706.22;;;12.89;41.06
42111;BME280;27766;52.174;5.456;2023-04-19T09:24:42;102708.91;;;12.70;41.59
42111;BME280;27766;52.174;5.456;2023-04-19T09:27:17;102709.41;;;12.59;42.51
42111;BME280;27766;52.174;5.456;2023-04-19T09:29:58;102714.19;;;12.71;42.34
42111;BME280;27766;52.174;5.456;2023-04-19T09:32:27;102715.06;;;12.72;42.93
42111;BME280;27766;52.174;5.456;2023-04-19T09:34:56;102699.28;;;12.67;43.20
42111;BME280;27766;52.174;5.456;2023-04-19T09:37:24;102693.06;;;12.85;43.10
42111;BME280;27766;52.174;5.456;2023-04-19T09:40:23;102697.47;;;12.64;41.58
42111;BME280;27766;52.174;5.456;2023-04-19T09:42:51;102701.34;;;12.76;42.37
42111;BME280;27766;52.174;5.456;2023-04-19T09:45:22;102690.03;;;12.96;42.85
42111;BME280;27766;52.174;5.456;2023-04-19T09:48:05;102685.56;;;13.17;42.54
42111;BME280;27766;52.174;5.456;2023-04-19T09:50:35;102696.03;;;13.18;41.88
42111;BME280;27766;52.174;5.456;2023-04-19T09:53:20;102701.09;;;13.15;40.79
42111;BME280;27766;52.174;5.456;2023-04-19T09:55:48;102698.66;;;13.20;40.72
42111;BME280;27766;52.174;5.456;2023-04-19T09:58:28;102686.41;;;13.16;41.42
42111;BME280;27766;52.174;5.456;2023-04-19T10:01:12;102693.03;;;13.32;41.47
42111;BME280;27766;52.174;5.456;2023-04-19T10:03:48;102685.31;;;13.33;40.74
42111;BME280;27766;52.174;5.456;2023-04-19T10:06:17;102692.75;;;13.47;42.06
42111;BME280;27766;52.174;5.456;2023-04-19T10:08:49;102686.72;;;13.48;42.51
42111;BME280;27766;52.174;5.456;2023-04-19T10:11:20;102683.78;;;13.38;41.63
42111;BME280;27766;52.174;5.456;2023-04-19T10:13:56;102673.47;;;13.41;40.53
42111;BME280;27766;52.174;5.456;2023-04-19T10:16:26;102670.59;;;13.34;40.79
42111;BME280;27766;52.174;5.456;2023-04-19T10:18:54;102671.84;;;13.21;40.57
42111;BME280;27766;52.174;5.456;2023-04-19T10:21:23;102672.22;;;13.07;41.78
42111;BME280;27766;52.174;5.456;2023-04-19T10:23:50;102667.13;;;12.86;41.96
42111;BME280;27766;52.174;5.456;2023-04-19T10:26:18;102674.38;;;12.95;41.66
42111;BME280;27766;52.174;5.456;2023-04-19T10:28:46;102675.63;;;13.05;40.39
42111;BME280;27766;52.174;5.456;2023-04-19T10:31:14;102669.81;;;13.12;40.02
42111;BME280;27766;52.174;5.456;2023-04-19T10:33:41;102664.81;;;13.18;40.39
42111;BME280;27766;52.174;5.456;2023-04-19T10:36:09;102657.50;;;13.08;39.46
42111;BME280;27766;52.174;5.456;2023-04-19T10:38:44;102659.94;;;13.03;38.96
42111;BME280;27766;52.174;5.456;2023-04-19T10:41:15;102666.44;;;13.14;39.41
42111;BME280;27766;52.174;5.456;2023-04-19T10:48:58;102663.19;;;13.20;39.91
42111;BME280;27766;52.174;5.456;2023-04-19T10:51:33;102663.59;;;13.33;40.69
42111;BME280;27766;52.174;5.456;2023-04-19T10:54:03;102658.28;;;13.29;38.08
42111;BME280;27766;52.174;5.456;2023-04-19T11:01:34;102634.06;;;13.30;37.33
42111;BME280;27766;52.174;5.456;2023-04-19T11:04:07;102646.13;;;13.28;36.48
42111;BME280;27766;52.174;5.456;2023-04-19T11:06:36;102638.63;;;13.38;37.06
42111;BME280;27766;52.174;5.456;2023-04-19T11:09:04;102646.19;;;13.54;37.21
42111;BME280;27766;52.174;5.456;2023-04-19T11:11:33;102634.00;;;13.53;36.38
42111;BME280;27766;52.174;5.456;2023-04-19T11:14:02;102627.09;;;13.54;36.99
42111;BME280;27766;52.174;5.456;2023-04-19T11:16:30;102631.63;;;13.59;36.45
42111;BME280;27766;52.174;5.456;2023-04-19T11:19:15;102630.56;;;13.54;36.59
42111;BME280;27766;52.174;5.456;2023-04-19T11:21:47;102617.88;;;13.64;36.55
42111;BME280;27766;52.174;5.456;2023-04-19T11:24:15;102622.56;;;13.74;35.44
42111;BME280;27766;52.174;5.456;2023-04-19T11:26:45;102611.69;;;13.86;35.63
42111;BME280;27766;52.174;5.456;2023-04-19T11:29:13;102607.66;;;13.96;35.96
42111;BME280;27766;52.174;5.456;2023-04-19T11:31:44;102609.63;;;14.03;34.71
42111;BME280;27766;52.174;5.456;2023-04-19T11:34:12;102603.75;;;14.10;34.22
42111;BME280;27766;52.174;5.456;2023-04-19T11:36:52;102601.47;;;14.19;34.47
42111;BME280;27766;52.174;5.456;2023-04-19T11:39:19;102589.13;;;14.14;35.12
42111;BME280;27766;52.174;5.456;2023-04-19T11:41:48;102601.00;;;14.33;35.75
42111;BME280;27766;52.174;5.456;2023-04-19T11:44:17;102594.41;;;14.44;33.20
42111;BME280;27766;52.174;5.456;2023-04-19T11:46:59;102587.66;;;14.52;31.25
42111;BME280;27766;52.174;5.456;2023-04-19T11:49:29;102594.41;;;14.44;31.43
42111;BME280;27766;52.174;5.456;2023-04-19T11:51:57;102571.84;;;14.46;31.41
42111;BME280;27766;52.174;5.456;2023-04-19T11:54:25;102577.88;;;14.44;31.75
42111;BME280;27766;52.174;5.456;2023-04-19T11:56:56;102575.69;;;14.57;31.29
42111;BME280;27766;52.174;5.456;2023-04-19T11:59:23;102579.84;;;14.52;31.63
42111;BME280;27766;52.174;5.456;2023-04-19T12:01:51;102580.56;;;14.76;31.66
42111;BME280;27766;52.174;5.456;2023-04-19T12:04:19;102561.78;;;14.87;32.15
42111;BME280;27766;52.174;5.456;2023-04-19T12:06:58;102576.22;;;14.76;31.15
42111;BME280;27766;52.174;5.456;2023-04-19T12:09:25;102567.69;;;14.82;31.80
42111;BME280;27766;52.174;5.456;2023-04-19T12:11:53;102574.03;;;14.92;30.95
42111;BME280;27766;52.174;5.456;2023-04-19T12:14:21;102572.16;;;14.86;31.66
42111;BME280;27766;52.174;5.456;2023-04-19T12:17:09;102569.84;;;14.97;31.85
42111;BME280;27766;52.174;5.456;2023-04-19T12:22:12;102559.97;;;15.17;31.30
42111;BME280;27766;52.174;5.456;2023-04-19T12:24:40;102567.78;;;15.17;31.50
42111;BME280;27766;52.174;5.456;2023-04-19T12:27:08;102550.91;;;15.38;32.21
42111;BME280;27766;52.174;5.456;2023-04-19T12:29:37;102563.41;;;15.49;32.91
42111;BME280;27766;52.174;5.456;2023-04-19T12:32:05;102562.59;;;15.18;32.04
42111;BME280;27766;52.174;5.456;2023-04-19T12:34:32;102550.59;;;15.25;32.48
42111;BME280;27766;52.174;5.456;2023-04-19T12:37:00;102550.03;;;15.03;32.71
42111;BME280;27766;52.174;5.456;2023-04-19T12:39:29;102550.50;;;15.21;33.07
42111;BME280;27766;52.174;5.456;2023-04-19T12:41:56;102547.22;;;15.29;31.64
42111;BME280;27766;52.174;5.456;2023-04-19T12:44:23;102537.91;;;15.39;31.82
42111;BME280;27766;52.174;5.456;2023-04-19T12:46:50;102532.25;;;15.57;31.36
42111;BME280;27766;52.174;5.456;2023-04-19T12:49:18;102540.63;;;15.44;31.32
42111;BME280;27766;52.174;5.456;2023-04-19T12:51:46;102525.19;;;15.51;30.47
42111;BME280;27766;52.174;5.456;2023-04-19T12:54:14;102526.03;;;15.50;31.00
42111;BME280;27766;52.174;5.456;2023-04-19T12:56:41;102521.78;;;15.56;31.04
42111;BME280;27766;52.174;5.456;2023-04-19T12:59:08;102512.63;;;15.73;31.45
42111;BME280;27766;52.174;5.456;2023-04-19T13:01:35;102515.44;;;15.82;32.13
42111;BME280;27766;52.174;5.456;2023-04-19T13:04:03;102518.59;;;16.04;32.11
42111;BME280;27766;52.174;5.456;2023-04-19T13:06:30;102511.53;;;16.41;32.04
42111;BME280;27766;52.174;5.456;2023-04-19T13:08:57;102486.88;;;16.74;31.17
42111;BME280;27766;52.174;5.456;2023-04-19T13:11:27;102476.97;;;17.02;30.84